createdAt,value
2023-04-30T00:00:31.479Z,7.13
2023-04-30T00:03:00.668Z,7.60
2023-04-30T00:05:29.755Z,6.63
2023-04-30T00:10:22.959Z,6.25
2023-04-30T00:12:52.274Z,6.05
2023-04-30T00:15:24.100Z,7.18
2023-04-30T00:17:56.068Z,6.45
2023-04-30T00:20:22.834Z,5.00
2023-04-30T00:22:49.396Z,6.93
2023-04-30T00:25:18.398Z,6.18
2023-04-30T00:30:14.362Z,6.10
2023-04-30T00:32:41.108Z,5.18
2023-04-30T00:35:08.335Z,6.25
2023-04-30T00:37:37.385Z,5.70
2023-04-30T00:40:07.849Z,5.25
2023-04-30T00:42:34.577Z,6.38
2023-04-30T00:45:03.543Z,5.63
2023-04-30T00:50:02.052Z,4.85
2023-04-30T00:52:28.805Z,6.30
2023-04-30T00:54:55.999Z,6.65
2023-04-30T00:57:23.525Z,5.40
2023-04-30T00:59:50.781Z,5.95
2023-04-30T01:02:20.188Z,7.50
2023-04-30T01:04:50.602Z,7.68
2023-04-30T01:07:22.053Z,7.75
2023-04-30T01:09:48.904Z,6.97
2023-04-30T01:13:00.328Z,6.15
2023-04-30T01:15:46.115Z,5.32
2023-04-30T01:18:23.200Z,5.43
2023-04-30T01:20:54.298Z,6.65
2023-04-30T01:23:34.390Z,7.07
2023-04-30T01:26:22.520Z,6.53
2023-04-30T01:28:51.852Z,5.95
2023-04-30T01:31:21.250Z,6.97
2023-04-30T01:33:50.038Z,5.35
2023-04-30T01:36:25.781Z,7.20
2023-04-30T01:39:23.119Z,6.38
2023-04-30T01:42:11.688Z,5.18
2023-04-30T01:44:59.741Z,6.82
2023-04-30T01:47:41.717Z,9.95
2023-04-30T01:50:26.811Z,7.20
2023-04-30T01:53:00.443Z,6.53
2023-04-30T01:55:37.943Z,7.68
2023-04-30T01:58:12.619Z,7.55
2023-04-30T02:00:39.209Z,6.43
2023-04-30T02:03:06.010Z,6.45
2023-04-30T02:05:36.017Z,7.72
2023-04-30T02:08:02.685Z,6.22
2023-04-30T02:10:30.399Z,6.93
2023-04-30T02:12:59.355Z,7.57
2023-04-30T02:15:28.517Z,7.05
2023-04-30T02:17:55.214Z,6.95
2023-04-30T02:20:21.920Z,6.85
2023-04-30T02:22:53.506Z,8.95
2023-04-30T02:25:22.468Z,6.47
2023-04-30T02:27:50.616Z,8.90
2023-04-30T02:30:17.442Z,7.50
2023-04-30T02:32:44.134Z,8.98
2023-04-30T02:35:10.801Z,7.90
2023-04-30T02:37:39.935Z,7.32
2023-04-30T02:40:10.428Z,6.68
2023-04-30T02:42:39.291Z,7.25
2023-04-30T02:45:08.629Z,8.18
2023-04-30T02:47:35.278Z,7.18
2023-04-30T02:50:01.902Z,6.13
2023-04-30T02:52:28.585Z,7.00
2023-04-30T02:54:55.183Z,6.05
2023-04-30T02:57:21.877Z,8.60
2023-04-30T02:59:50.837Z,8.52
2023-04-30T03:02:21.837Z,8.27
2023-04-30T03:04:48.592Z,8.57
2023-04-30T03:07:15.156Z,8.93
2023-04-30T03:09:41.728Z,7.65
2023-04-30T03:12:14.609Z,9.00
2023-04-30T03:14:41.651Z,6.70
2023-04-30T03:17:10.610Z,9.35
2023-04-30T03:19:37.318Z,8.95
2023-04-30T03:22:06.165Z,6.75
2023-04-30T03:24:34.998Z,6.38
2023-04-30T03:27:04.143Z,6.75
2023-04-30T03:29:30.687Z,9.63
2023-04-30T03:31:59.887Z,8.82
2023-04-30T03:34:28.873Z,7.20
2023-04-30T03:36:55.603Z,7.30
2023-04-30T03:39:22.201Z,9.00
2023-04-30T03:41:48.770Z,12.50
2023-04-30T03:44:18.273Z,7.63
2023-04-30T03:46:45.101Z,9.60
2023-04-30T03:49:14.257Z,10.57
2023-04-30T03:51:42.245Z,8.00
2023-04-30T03:54:11.445Z,8.18
2023-04-30T03:56:38.168Z,11.40
2023-04-30T03:59:05.748Z,11.18
2023-04-30T04:01:34.888Z,9.40
2023-04-30T04:04:02.175Z,10.50
2023-04-30T04:06:28.935Z,10.02
2023-04-30T04:08:55.628Z,13.27
2023-04-30T04:11:22.362Z,13.27
2023-04-30T04:13:51.469Z,13.40
2023-04-30T04:18:47.041Z,13.05
2023-04-30T04:21:13.666Z,12.35
2023-04-30T04:23:40.205Z,12.38
2023-04-30T04:26:07.138Z,12.35
2023-04-30T04:28:33.696Z,13.43
2023-04-30T04:31:03.336Z,15.15
2023-04-30T04:33:29.928Z,11.60
2023-04-30T04:35:57.662Z,15.68
2023-04-30T04:38:26.549Z,14.82
2023-04-30T04:40:56.606Z,14.18
2023-04-30T04:43:23.409Z,12.05
2023-04-30T04:45:50.194Z,14.88
2023-04-30T04:48:16.915Z,13.73
2023-04-30T04:50:43.482Z,15.70
2023-04-30T04:53:13.378Z,13.52
2023-04-30T04:55:40.060Z,15.05
2023-04-30T04:58:06.778Z,15.38
2023-04-30T05:00:33.892Z,14.10
2023-04-30T05:03:02.586Z,16.05
2023-04-30T05:05:30.113Z,16.08
2023-04-30T05:07:56.775Z,15.68
2023-04-30T05:10:28.905Z,14.95
2023-04-30T05:12:57.863Z,15.82
2023-04-30T05:15:24.916Z,13.35
2023-04-30T05:17:51.538Z,15.32
2023-04-30T05:20:18.218Z,17.17
2023-04-30T05:22:44.879Z,14.00
2023-04-30T05:25:16.468Z,14.07
2023-04-30T05:27:43.104Z,14.32
2023-04-30T05:30:10.473Z,17.15
2023-04-30T05:32:37.313Z,13.45
2023-04-30T05:35:04.482Z,15.75
2023-04-30T05:37:34.624Z,14.50
2023-04-30T05:40:06.389Z,13.73
2023-04-30T05:42:32.937Z,15.52
2023-04-30T05:45:02.054Z,12.20
2023-04-30T05:47:28.681Z,11.57
2023-04-30T05:49:58.006Z,13.60
2023-04-30T05:52:24.642Z,13.63
2023-04-30T05:54:51.207Z,11.40
2023-04-30T05:57:17.835Z,11.48
2023-04-30T05:59:44.389Z,10.77
2023-04-30T06:02:11.012Z,8.20
2023-04-30T06:04:40.453Z,9.82
2023-04-30T06:07:09.256Z,10.60
2023-04-30T06:09:38.120Z,12.50
2023-04-30T06:12:05.417Z,10.82
2023-04-30T06:14:32.225Z,10.23
2023-04-30T06:16:59.141Z,9.93
2023-04-30T06:19:25.988Z,8.25
2023-04-30T06:21:52.580Z,10.43
2023-04-30T06:24:21.384Z,9.80
2023-04-30T06:26:55.485Z,8.43
2023-04-30T06:29:24.487Z,8.80
2023-04-30T06:34:21.879Z,8.43
2023-04-30T06:36:48.896Z,8.02
2023-04-30T06:39:16.263Z,7.88
2023-04-30T06:41:45.084Z,6.57
2023-04-30T06:44:14.484Z,6.55
2023-04-30T06:46:43.541Z,6.90
2023-04-30T06:49:15.270Z,5.72
2023-04-30T06:51:42.845Z,5.70
2023-04-30T06:54:11.805Z,5.13
2023-04-30T06:59:05.308Z,4.35
2023-04-30T07:01:31.986Z,5.60
2023-04-30T07:03:59.304Z,5.30
2023-04-30T07:06:26.291Z,4.47
2023-04-30T07:08:52.965Z,5.15
2023-04-30T07:11:24.026Z,5.85
2023-04-30T07:13:50.630Z,7.13
2023-04-30T07:16:19.771Z,5.53
2023-04-30T07:18:50.203Z,6.30
2023-04-30T07:21:19.231Z,6.35
2023-04-30T07:23:49.099Z,6.07
2023-04-30T07:26:18.364Z,5.25
2023-04-30T07:28:48.301Z,5.80
2023-04-30T07:31:17.503Z,9.68
2023-04-30T07:33:48.902Z,4.50
2023-04-30T07:36:15.790Z,4.88
2023-04-30T07:38:42.670Z,5.18
2023-04-30T07:41:11.212Z,5.72
2023-04-30T07:43:37.827Z,4.53
2023-04-30T07:46:04.508Z,4.60
2023-04-30T07:48:31.304Z,5.05
2023-04-30T07:50:57.901Z,5.00
2023-04-30T07:53:24.490Z,5.68
2023-04-30T07:55:51.062Z,5.07
2023-04-30T07:58:17.685Z,5.40
2023-04-30T08:00:46.732Z,4.57
2023-04-30T08:03:13.566Z,4.00
2023-04-30T08:05:41.681Z,3.92
2023-04-30T08:08:08.363Z,4.38
2023-04-30T08:10:37.839Z,4.25
2023-04-30T08:13:05.535Z,4.43
2023-04-30T08:15:34.545Z,4.65
2023-04-30T08:18:06.068Z,3.92
2023-04-30T08:20:36.545Z,5.28
2023-04-30T08:23:05.151Z,4.78
2023-04-30T08:25:34.678Z,5.00
2023-04-30T08:28:04.241Z,4.85
2023-04-30T08:30:33.581Z,3.13
2023-04-30T08:33:00.417Z,3.30
2023-04-30T08:35:30.040Z,3.28
2023-04-30T08:37:59.060Z,3.50
2023-04-30T08:40:43.522Z,3.78
2023-04-30T08:43:15.655Z,3.72
2023-04-30T08:45:42.632Z,3.85
2023-04-30T08:48:15.316Z,3.63
2023-04-30T08:50:41.995Z,3.30
2023-04-30T08:53:17.764Z,3.30
2023-04-30T08:55:47.286Z,3.47
2023-04-30T08:58:13.917Z,3.47
2023-04-30T09:00:42.980Z,2.95
2023-04-30T09:03:10.194Z,4.07
2023-04-30T09:05:38.496Z,2.88
2023-04-30T09:08:07.868Z,3.10
2023-04-30T09:10:39.315Z,4.30
2023-04-30T09:13:09.018Z,3.83
2023-04-30T09:15:38.728Z,3.90
2023-04-30T09:18:08.977Z,3.47
2023-04-30T09:20:36.048Z,3.28
2023-04-30T09:23:07.956Z,3.58
2023-04-30T09:25:43.753Z,3.35
2023-04-30T09:28:12.321Z,3.75
2023-04-30T09:30:44.203Z,2.85
2023-04-30T09:33:12.124Z,3.72
2023-04-30T09:35:40.246Z,3.78
2023-04-30T09:38:07.006Z,3.45
2023-04-30T09:40:41.704Z,3.17
2023-04-30T09:43:11.792Z,3.72
2023-04-30T09:45:49.109Z,3.38
2023-04-30T09:48:17.836Z,2.58
2023-04-30T09:50:47.411Z,2.40
2023-04-30T09:53:20.199Z,2.47
2023-04-30T09:55:49.295Z,3.25
2023-04-30T09:58:17.724Z,3.22
2023-04-30T10:00:50.939Z,2.70
2023-04-30T10:03:17.692Z,2.80
2023-04-30T10:05:49.408Z,2.80
2023-04-30T10:08:30.941Z,4.55
2023-04-30T10:11:05.358Z,2.55
2023-04-30T10:13:41.289Z,4.00
2023-04-30T10:16:18.724Z,3.08
2023-04-30T10:18:49.438Z,3.50
2023-04-30T10:21:18.010Z,2.60
2023-04-30T10:23:44.805Z,2.70
2023-04-30T10:26:17.991Z,2.30
2023-04-30T10:28:48.647Z,2.75
2023-04-30T10:31:15.620Z,2.50
2023-04-30T10:33:51.982Z,2.75
2023-04-30T10:36:48.992Z,2.20
2023-04-30T10:39:20.063Z,2.72
2023-04-30T10:41:51.814Z,2.55
2023-04-30T10:44:28.745Z,3.40
2023-04-30T10:47:10.277Z,3.10
2023-04-30T10:49:44.327Z,4.47
2023-04-30T10:52:11.522Z,3.90
2023-04-30T10:54:38.632Z,3.03
2023-04-30T10:57:17.720Z,2.80
2023-04-30T10:59:52.637Z,4.22
2023-04-30T11:02:20.247Z,2.53
2023-04-30T11:05:14.965Z,2.97
2023-04-30T11:07:58.456Z,2.92
2023-04-30T11:10:29.037Z,3.55
2023-04-30T11:12:59.462Z,3.38
2023-04-30T11:15:35.272Z,3.05
2023-04-30T11:18:04.296Z,2.92
2023-04-30T11:20:33.559Z,2.95
2023-04-30T11:23:25.005Z,3.05
2023-04-30T11:25:59.920Z,2.20
2023-04-30T11:28:34.714Z,3.47
2023-04-30T11:31:04.152Z,2.67
2023-04-30T11:33:32.792Z,3.67
2023-04-30T11:36:03.044Z,2.63
2023-04-30T11:38:34.475Z,3.00
2023-04-30T11:41:05.301Z,3.17
2023-04-30T11:43:34.850Z,4.30
2023-04-30T11:46:14.083Z,2.72
2023-04-30T11:48:49.751Z,2.30
2023-04-30T11:51:17.461Z,2.63
2023-04-30T11:53:47.116Z,2.28
2023-04-30T11:56:13.732Z,2.53
2023-04-30T11:58:42.679Z,2.85
2023-04-30T12:03:59.467Z,2.90
2023-04-30T12:06:28.872Z,2.55
2023-04-30T12:08:59.092Z,2.30
2023-04-30T12:11:35.150Z,2.90
2023-04-30T12:14:03.627Z,3.03
2023-04-30T12:16:49.500Z,3.38
2023-04-30T12:19:17.915Z,2.65
2023-04-30T12:21:49.121Z,2.20
2023-04-30T12:24:19.787Z,2.53
2023-04-30T12:26:48.412Z,2.67
2023-04-30T12:29:17.883Z,3.13
2023-04-30T12:31:48.374Z,2.95
2023-04-30T12:34:15.455Z,2.47
2023-04-30T12:36:43.301Z,2.60
2023-04-30T12:39:12.248Z,2.25
2023-04-30T12:44:22.385Z,2.80
2023-04-30T12:46:50.913Z,2.30
2023-04-30T12:49:33.621Z,2.50
2023-04-30T12:52:11.437Z,1.92
2023-04-30T12:54:42.238Z,2.45
2023-04-30T12:57:15.082Z,2.17
2023-04-30T12:59:54.218Z,2.33
2023-04-30T13:02:27.420Z,2.63
2023-04-30T13:04:54.573Z,2.75
2023-04-30T13:07:26.000Z,1.90
2023-04-30T13:09:53.042Z,2.80
2023-04-30T13:12:22.384Z,2.60
2023-04-30T13:14:49.058Z,2.40
2023-04-30T13:17:15.713Z,1.92
2023-04-30T13:19:42.281Z,2.58
2023-04-30T13:22:08.925Z,2.13
2023-04-30T13:24:35.967Z,2.15
2023-04-30T13:27:02.936Z,2.17
2023-04-30T13:29:29.772Z,2.83
2023-04-30T13:31:56.498Z,2.58
2023-04-30T13:34:23.240Z,1.67
2023-04-30T13:36:50.307Z,2.13
2023-04-30T13:39:17.330Z,2.25
2023-04-30T13:41:49.222Z,3.00
2023-04-30T13:44:17.083Z,5.72
2023-04-30T13:46:43.902Z,2.47
2023-04-30T13:49:10.563Z,2.50
2023-04-30T13:51:39.709Z,4.28
2023-04-30T13:54:06.857Z,2.65
2023-04-30T13:56:33.927Z,1.83
2023-04-30T13:59:00.507Z,3.95
2023-04-30T14:01:27.249Z,2.20
2023-04-30T14:03:56.604Z,1.95
2023-04-30T14:06:23.259Z,1.88
2023-04-30T14:08:52.554Z,2.40
2023-04-30T14:11:21.391Z,1.88
2023-04-30T14:16:19.633Z,1.55
2023-04-30T14:18:46.572Z,2.05
2023-04-30T14:21:15.436Z,1.90
2023-04-30T14:23:42.071Z,2.92
2023-04-30T14:26:08.677Z,1.60
2023-04-30T14:28:35.430Z,2.00
2023-04-30T14:31:04.638Z,1.90
2023-04-30T14:33:35.106Z,2.40
2023-04-30T14:36:01.945Z,2.63
2023-04-30T14:38:28.550Z,1.48
2023-04-30T14:40:55.219Z,2.05
2023-04-30T14:43:22.026Z,2.05
2023-04-30T14:45:48.757Z,1.48
2023-04-30T14:48:15.423Z,2.00
2023-04-30T14:50:45.075Z,2.80
2023-04-30T14:53:13.196Z,2.05
2023-04-30T14:55:42.617Z,1.73
2023-04-30T14:58:12.356Z,2.25
2023-04-30T15:00:38.974Z,2.20
2023-04-30T15:03:08.160Z,1.50
2023-04-30T15:05:34.943Z,3.33
2023-04-30T15:08:01.731Z,1.73
2023-04-30T15:10:28.376Z,1.40
2023-04-30T15:12:54.938Z,3.22
2023-04-30T15:15:28.031Z,1.92
2023-04-30T15:17:56.855Z,2.72
2023-04-30T15:20:23.650Z,2.42
2023-04-30T15:22:54.978Z,2.97
2023-04-30T15:25:24.545Z,2.75
2023-04-30T15:27:53.901Z,2.63
2023-04-30T15:30:25.438Z,6.38
2023-04-30T15:32:52.073Z,2.55
2023-04-30T15:35:18.688Z,2.75
2023-04-30T15:37:45.440Z,2.90
2023-04-30T15:40:15.739Z,2.92
2023-04-30T15:42:42.675Z,2.72
2023-04-30T15:45:11.830Z,3.03
2023-04-30T15:47:41.310Z,2.97
2023-04-30T15:50:10.947Z,4.40
2023-04-30T15:52:40.259Z,3.60
2023-04-30T15:55:10.459Z,3.58
2023-04-30T15:57:37.151Z,2.97
2023-04-30T16:00:05.157Z,4.15
2023-04-30T16:02:32.340Z,3.78
2023-04-30T16:05:09.967Z,3.45
2023-04-30T16:07:37.258Z,3.13
2023-04-30T16:10:04.201Z,3.00
2023-04-30T16:12:34.274Z,3.10
2023-04-30T16:15:05.916Z,4.30
2023-04-30T16:17:38.258Z,2.67
2023-04-30T16:20:10.630Z,2.70
2023-04-30T16:22:42.562Z,4.68
2023-04-30T16:25:12.709Z,3.05
2023-04-30T16:27:39.507Z,2.78
2023-04-30T16:30:09.458Z,3.15
2023-04-30T16:32:39.015Z,3.63
2023-04-30T16:35:06.417Z,3.33
2023-04-30T16:37:35.975Z,3.20
2023-04-30T16:40:06.507Z,3.55
2023-04-30T16:42:33.918Z,3.03
2023-04-30T16:45:02.876Z,3.08
2023-04-30T16:47:30.135Z,4.13
2023-04-30T16:49:58.659Z,3.50
2023-04-30T16:52:27.696Z,3.13
2023-04-30T16:57:25.976Z,4.55
2023-04-30T16:59:57.619Z,3.30
2023-04-30T17:02:29.194Z,3.90
2023-04-30T17:04:55.803Z,3.08
2023-04-30T17:07:25.606Z,4.07
2023-04-30T17:09:55.011Z,2.88
2023-04-30T17:12:24.847Z,4.28
2023-04-30T17:14:52.261Z,4.65
2023-04-30T17:17:23.473Z,3.22
2023-04-30T17:19:50.108Z,2.72
2023-04-30T17:22:19.792Z,2.78
2023-04-30T17:24:46.960Z,3.55
2023-04-30T17:27:13.578Z,3.00
2023-04-30T17:29:42.754Z,3.50
2023-04-30T17:32:11.705Z,3.10
2023-04-30T17:37:08.767Z,3.53
2023-04-30T17:39:35.484Z,4.40
2023-04-30T17:42:04.822Z,3.70
2023-04-30T17:44:36.354Z,4.60
2023-04-30T17:47:03.297Z,4.30
2023-04-30T17:49:30.222Z,3.42
2023-04-30T17:51:59.199Z,3.90
2023-04-30T17:54:26.532Z,5.00
2023-04-30T17:56:53.566Z,3.95
2023-04-30T17:59:22.864Z,5.15
2023-04-30T18:01:49.743Z,3.78
2023-04-30T18:04:19.583Z,4.95
2023-04-30T18:06:49.540Z,5.03
2023-04-30T18:09:16.823Z,4.40
2023-04-30T18:11:43.519Z,5.03
2023-04-30T18:14:10.493Z,10.60
2023-04-30T18:16:37.557Z,5.15
2023-04-30T18:19:05.574Z,5.57
2023-04-30T18:21:32.319Z,6.47
2023-04-30T18:23:58.979Z,4.90
2023-04-30T18:26:28.253Z,5.00
2023-04-30T18:28:57.895Z,5.30
2023-04-30T18:31:24.568Z,5.10
2023-04-30T18:33:51.225Z,4.45
2023-04-30T18:36:20.190Z,4.45
2023-04-30T18:41:17.691Z,5.10
2023-04-30T18:46:11.485Z,4.95
2023-04-30T18:48:40.845Z,4.18
2023-04-30T18:51:07.465Z,5.07
2023-04-30T18:53:37.910Z,4.78
2023-04-30T18:56:04.687Z,4.57
2023-04-30T18:58:31.349Z,6.15
2023-04-30T19:00:58.253Z,4.75
2023-04-30T19:03:24.983Z,4.85
2023-04-30T19:05:57.511Z,5.28
2023-04-30T19:08:24.390Z,5.57
2023-04-30T19:10:54.001Z,5.15
2023-04-30T19:13:20.749Z,5.82
2023-04-30T19:15:48.929Z,6.60
2023-04-30T19:18:16.812Z,6.72
2023-04-30T19:20:43.694Z,4.95
2023-04-30T19:23:10.461Z,6.00
2023-04-30T19:25:37.773Z,5.50
2023-04-30T19:28:04.535Z,5.10
2023-04-30T19:30:34.499Z,4.55
2023-04-30T19:33:01.124Z,4.78
2023-04-30T19:35:27.795Z,4.90
2023-04-30T19:37:54.386Z,4.50
2023-04-30T19:40:22.138Z,5.57
2023-04-30T19:42:52.491Z,4.97
2023-04-30T19:45:26.044Z,5.30
2023-04-30T19:47:52.649Z,5.28
2023-04-30T19:50:20.639Z,5.18
2023-04-30T19:52:49.771Z,5.10
2023-04-30T19:55:16.429Z,5.85
2023-04-30T19:57:43.201Z,6.32
2023-04-30T20:00:11.988Z,4.65
2023-04-30T20:02:41.433Z,6.15
2023-04-30T20:05:12.091Z,7.00
2023-04-30T20:07:38.703Z,7.45
2023-04-30T20:10:11.334Z,5.97
2023-04-30T20:12:38.416Z,6.55
2023-04-30T20:15:10.381Z,6.22
2023-04-30T20:17:41.831Z,6.10
2023-04-30T20:20:08.842Z,6.18
2023-04-30T20:22:35.551Z,5.70
2023-04-30T20:25:03.571Z,5.45
2023-04-30T20:27:30.485Z,6.13
2023-04-30T20:30:00.133Z,6.35
2023-04-30T20:32:29.346Z,8.18
2023-04-30T20:34:58.832Z,5.82
2023-04-30T20:37:27.811Z,5.97
2023-04-30T20:39:55.166Z,8.57
2023-04-30T20:42:24.550Z,5.05
2023-04-30T20:44:54.202Z,5.45
2023-04-30T20:47:25.702Z,6.75
2023-04-30T20:49:55.200Z,6.63
2023-04-30T20:52:24.311Z,6.80
2023-04-30T20:54:51.302Z,5.93
2023-04-30T20:57:17.914Z,6.75
2023-04-30T20:59:46.937Z,7.13
2023-04-30T21:04:42.687Z,6.32
2023-04-30T21:07:11.764Z,5.30
2023-04-30T21:12:09.607Z,7.13
2023-04-30T21:14:36.409Z,6.10
2023-04-30T21:17:03.314Z,6.35
2023-04-30T21:19:33.824Z,7.22
2023-04-30T21:22:02.802Z,6.57
2023-04-30T21:24:32.350Z,6.18
2023-04-30T21:27:00.383Z,6.22
2023-04-30T21:29:29.467Z,6.13
2023-04-30T21:31:56.528Z,6.85
2023-04-30T21:34:23.198Z,6.80
2023-04-30T21:36:52.422Z,7.10
2023-04-30T21:39:22.507Z,8.13
2023-04-30T21:41:51.329Z,7.32
2023-04-30T21:44:18.116Z,8.48
2023-04-30T21:46:45.170Z,6.70
2023-04-30T21:49:15.233Z,6.82
2023-04-30T21:51:46.683Z,8.85
2023-04-30T21:54:13.763Z,9.43
2023-04-30T21:56:43.549Z,6.75
2023-04-30T21:59:11.566Z,6.13
2023-04-30T22:01:40.522Z,6.50
2023-04-30T22:06:36.124Z,6.05
2023-04-30T22:09:04.504Z,10.20
2023-04-30T22:11:31.296Z,6.72
2023-04-30T22:14:00.568Z,5.97
2023-04-30T22:16:48.658Z,7.25
2023-04-30T22:19:18.165Z,6.30
2023-04-30T22:21:45.142Z,6.68
2023-04-30T22:24:14.571Z,6.40
2023-04-30T22:26:41.306Z,6.20
2023-04-30T22:29:08.567Z,6.32
2023-04-30T22:31:35.190Z,6.03
2023-04-30T22:34:02.817Z,8.40
2023-04-30T22:36:29.462Z,6.10
2023-04-30T22:38:56.570Z,5.82
2023-04-30T22:41:25.831Z,6.10
2023-04-30T22:43:57.223Z,6.63
2023-04-30T22:46:29.894Z,7.50
2023-04-30T22:48:59.904Z,8.77
2023-04-30T22:51:29.024Z,6.70
2023-04-30T22:53:56.794Z,7.00
2023-04-30T22:56:28.225Z,4.40
2023-04-30T22:58:57.353Z,5.82
2023-04-30T23:01:26.718Z,5.75
2023-04-30T23:03:54.311Z,6.28
2023-04-30T23:06:21.346Z,6.68
2023-04-30T23:08:48.547Z,5.97
2023-04-30T23:11:15.163Z,6.13
2023-04-30T23:13:43.847Z,5.00
2023-04-30T23:16:15.272Z,6.55
2023-04-30T23:18:42.657Z,7.25
2023-04-30T23:21:11.778Z,5.75
2023-04-30T23:26:05.015Z,4.90
2023-04-30T23:28:31.636Z,5.65
2023-04-30T23:31:01.295Z,3.88
2023-04-30T23:33:27.985Z,7.70
2023-04-30T23:35:57.098Z,4.47
2023-04-30T23:40:50.605Z,4.28
2023-04-30T23:43:17.391Z,5.32
2023-04-30T23:45:44.033Z,7.43
2023-04-30T23:48:10.699Z,5.35
2023-04-30T23:50:39.591Z,6.05
2023-04-30T23:53:06.258Z,4.72
2023-04-30T23:55:32.923Z,5.28
2023-04-30T23:57:59.951Z,4.65
